sensor_id;sensor_type;location;lat;lon;timestamp;P1;durP1;ratioP1;P2;durP2;ratioP2
4603;SDS011;2314;48.272;11.562;2022-11-15T00:00:46;138.07;;;11.30;;
4603;SDS011;2314;48.272;11.562;2022-11-15T00:03:14;136.60;;;10.53;;
4603;SDS011;2314;48.272;11.562;2022-11-15T00:05:43;137.37;;;10.53;;
4603;SDS011;2314;48.272;11.562;2022-11-15T00:08:10;136.40;;;10.00;;
4603;SDS011;2314;48.272;11.562;2022-11-15T00:10:38;135.30;;;10.20;;
4603;SDS011;2314;48.272;11.562;2022-11-15T00:13:06;138.70;;;10.40;;
4603;SDS011;2314;48.272;11.562;2022-11-15T00:15:34;137.63;;;10.70;;
4603;SDS011;2314;48.272;11.562;2022-11-15T00:18:02;136.67;;;10.33;;
4603;SDS011;2314;48.272;11.562;2022-11-15T00:20:30;134.17;;;9.63;;
4603;SDS011;2314;48.272;11.562;2022-11-15T00:23:00;135.87;;;9.80;;
4603;SDS011;2314;48.272;11.562;2022-11-15T00:25:30;146.27;;;11.03;;
4603;SDS011;2314;48.272;11.562;2022-11-15T00:27:57;136.60;;;10.40;;
4603;SDS011;2314;48.272;11.562;2022-11-15T00:30:26;135.30;;;9.53;;
4603;SDS011;2314;48.272;11.562;2022-11-15T00:32:54;135.50;;;8.73;;
4603;SDS011;2314;48.272;11.562;2022-11-15T00:35:21;137.70;;;10.30;;
4603;SDS011;2314;48.272;11.562;2022-11-15T00:37:49;139.93;;;11.77;;
4603;SDS011;2314;48.272;11.562;2022-11-15T00:40:17;136.60;;;10.80;;
4603;SDS011;2314;48.272;11.562;2022-11-15T00:42:45;134.57;;;10.90;;
4603;SDS011;2314;48.272;11.562;2022-11-15T00:45:12;140.00;;;11.77;;
4603;SDS011;2314;48.272;11.562;2022-11-15T00:47:39;137.27;;;11.13;;
4603;SDS011;2314;48.272;11.562;2022-11-15T00:50:07;142.20;;;11.77;;
4603;SDS011;2314;48.272;11.562;2022-11-15T00:52:34;137.00;;;10.80;;
4603;SDS011;2314;48.272;11.562;2022-11-15T00:55:02;139.27;;;12.00;;
4603;SDS011;2314;48.272;11.562;2022-11-15T00:57:31;137.33;;;10.67;;
4603;SDS011;2314;48.272;11.562;2022-11-15T00:59:59;143.80;;;11.00;;
4603;SDS011;2314;48.272;11.562;2022-11-15T01:02:26;137.07;;;10.30;;
4603;SDS011;2314;48.272;11.562;2022-11-15T01:04:53;133.37;;;9.07;;
4603;SDS011;2314;48.272;11.562;2022-11-15T01:07:20;135.57;;;9.37;;
4603;SDS011;2314;48.272;11.562;2022-11-15T01:09:48;134.90;;;9.43;;
4603;SDS011;2314;48.272;11.562;2022-11-15T01:12:15;134.37;;;9.47;;
4603;SDS011;2314;48.272;11.562;2022-11-15T01:14:44;135.87;;;9.30;;
4603;SDS011;2314;48.272;11.562;2022-11-15T01:17:11;137.07;;;9.07;;
4603;SDS011;2314;48.272;11.562;2022-11-15T01:19:38;133.80;;;9.60;;
4603;SDS011;2314;48.272;11.562;2022-11-15T01:22:06;134.80;;;9.50;;
4603;SDS011;2314;48.272;11.562;2022-11-15T01:24:33;134.60;;;9.60;;
4603;SDS011;2314;48.272;11.562;2022-11-15T01:27:01;139.90;;;10.80;;
4603;SDS011;2314;48.272;11.562;2022-11-15T01:29:28;138.57;;;11.57;;
4603;SDS011;2314;48.272;11.562;2022-11-15T01:31:56;136.10;;;10.50;;
4603;SDS011;2314;48.272;11.562;2022-11-15T01:34:24;137.60;;;9.90;;
4603;SDS011;2314;48.272;11.562;2022-11-15T01:36:51;137.93;;;10.00;;
4603;SDS011;2314;48.272;11.562;2022-11-15T01:39:18;139.57;;;11.53;;
4603;SDS011;2314;48.272;11.562;2022-11-15T01:41:46;157.53;;;15.60;;
4603;SDS011;2314;48.272;11.562;2022-11-15T01:47:15;153.50;;;13.77;;
4603;SDS011;2314;48.272;11.562;2022-11-15T01:49:49;141.63;;;11.80;;
4603;SDS011;2314;48.272;11.562;2022-11-15T01:52:22;139.47;;;11.17;;
4603;SDS011;2314;48.272;11.562;2022-11-15T01:54:54;134.43;;;8.97;;
4603;SDS011;2314;48.272;11.562;2022-11-15T01:57:27;135.50;;;9.77;;
4603;SDS011;2314;48.272;11.562;2022-11-15T01:59:55;136.27;;;9.70;;
4603;SDS011;2314;48.272;11.562;2022-11-15T02:02:25;136.27;;;9.67;;
4603;SDS011;2314;48.272;11.562;2022-11-15T02:04:52;136.00;;;9.90;;
4603;SDS011;2314;48.272;11.562;2022-11-15T02:07:20;136.77;;;10.33;;
4603;SDS011;2314;48.272;11.562;2022-11-15T02:09:48;135.63;;;10.10;;
4603;SDS011;2314;48.272;11.562;2022-11-15T02:12:17;136.47;;;9.37;;
4603;SDS011;2314;48.272;11.562;2022-11-15T02:14:47;137.13;;;10.40;;
4603;SDS011;2314;48.272;11.562;2022-11-15T02:17:23;150.70;;;9.90;;
4603;SDS011;2314;48.272;11.562;2022-11-15T02:20:23;138.20;;;10.60;;
4603;SDS011;2314;48.272;11.562;2022-11-15T02:23:13;139.60;;;9.53;;
4603;SDS011;2314;48.272;11.562;2022-11-15T02:26:29;132.57;;;8.60;;
4603;SDS011;2314;48.272;11.562;2022-11-15T02:29:42;136.10;;;9.13;;
4603;SDS011;2314;48.272;11.562;2022-11-15T02:32:29;136.37;;;9.00;;
4603;SDS011;2314;48.272;11.562;2022-11-15T02:35:06;136.07;;;9.40;;
4603;SDS011;2314;48.272;11.562;2022-11-15T02:37:44;134.97;;;8.50;;
4603;SDS011;2314;48.272;11.562;2022-11-15T02:40:22;133.30;;;9.30;;
4603;SDS011;2314;48.272;11.562;2022-11-15T02:43:01;135.27;;;9.23;;
4603;SDS011;2314;48.272;11.562;2022-11-15T02:45:53;135.00;;;8.93;;
4603;SDS011;2314;48.272;11.562;2022-11-15T02:48:27;139.40;;;9.77;;
4603;SDS011;2314;48.272;11.562;2022-11-15T02:50:56;134.00;;;9.37;;
4603;SDS011;2314;48.272;11.562;2022-11-15T02:53:25;132.70;;;8.90;;
4603;SDS011;2314;48.272;11.562;2022-11-15T02:55:54;134.77;;;9.43;;
4603;SDS011;2314;48.272;11.562;2022-11-15T02:58:32;134.00;;;9.27;;
4603;SDS011;2314;48.272;11.562;2022-11-15T03:01:18;134.63;;;9.43;;
4603;SDS011;2314;48.272;11.562;2022-11-15T03:04:05;142.37;;;9.50;;
4603;SDS011;2314;48.272;11.562;2022-11-15T03:06:45;132.80;;;7.93;;
4603;SDS011;2314;48.272;11.562;2022-11-15T03:09:21;137.27;;;9.20;;
4603;SDS011;2314;48.272;11.562;2022-11-15T03:12:01;135.60;;;8.77;;
4603;SDS011;2314;48.272;11.562;2022-11-15T03:14:34;130.97;;;8.20;;
4603;SDS011;2314;48.272;11.562;2022-11-15T03:17:06;132.27;;;8.20;;
4603;SDS011;2314;48.272;11.562;2022-11-15T03:19:44;132.80;;;8.30;;
4603;SDS011;2314;48.272;11.562;2022-11-15T03:22:14;130.57;;;8.23;;
4603;SDS011;2314;48.272;11.562;2022-11-15T03:24:45;131.90;;;8.70;;
4603;SDS011;2314;48.272;11.562;2022-11-15T03:27:17;130.50;;;7.70;;
4603;SDS011;2314;48.272;11.562;2022-11-15T03:29:50;132.00;;;6.80;;
4603;SDS011;2314;48.272;11.562;2022-11-15T03:32:23;135.27;;;7.97;;
4603;SDS011;2314;48.272;11.562;2022-11-15T03:34:55;135.17;;;7.30;;
4603;SDS011;2314;48.272;11.562;2022-11-15T03:37:27;129.27;;;6.77;;
4603;SDS011;2314;48.272;11.562;2022-11-15T03:40:00;131.17;;;7.27;;
4603;SDS011;2314;48.272;11.562;2022-11-15T03:42:30;129.00;;;6.70;;
4603;SDS011;2314;48.272;11.562;2022-11-15T03:45:03;135.83;;;7.13;;
4603;SDS011;2314;48.272;11.562;2022-11-15T03:47:40;130.80;;;8.17;;
4603;SDS011;2314;48.272;11.562;2022-11-15T03:50:14;133.57;;;9.10;;
4603;SDS011;2314;48.272;11.562;2022-11-15T03:52:45;134.70;;;9.80;;
4603;SDS011;2314;48.272;11.562;2022-11-15T03:55:15;138.10;;;10.63;;
4603;SDS011;2314;48.272;11.562;2022-11-15T03:57:45;134.50;;;9.27;;
4603;SDS011;2314;48.272;11.562;2022-11-15T04:00:16;133.20;;;8.93;;
4603;SDS011;2314;48.272;11.562;2022-11-15T04:02:43;134.80;;;9.57;;
4603;SDS011;2314;48.272;11.562;2022-11-15T04:05:11;133.53;;;9.00;;
4603;SDS011;2314;48.272;11.562;2022-11-15T04:07:39;132.70;;;9.03;;
4603;SDS011;2314;48.272;11.562;2022-11-15T04:10:08;140.37;;;9.77;;
4603;SDS011;2314;48.272;11.562;2022-11-15T04:12:36;134.67;;;10.03;;
4603;SDS011;2314;48.272;11.562;2022-11-15T04:15:08;136.30;;;9.97;;
4603;SDS011;2314;48.272;11.562;2022-11-15T04:17:38;137.10;;;10.63;;
4603;SDS011;2314;48.272;11.562;2022-11-15T04:20:08;136.60;;;10.80;;
4603;SDS011;2314;48.272;11.562;2022-11-15T04:23:00;133.37;;;9.50;;
4603;SDS011;2314;48.272;11.562;2022-11-15T04:25:48;135.60;;;10.03;;
4603;SDS011;2314;48.272;11.562;2022-11-15T04:28:18;133.57;;;9.17;;
4603;SDS011;2314;48.272;11.562;2022-11-15T04:30:45;131.70;;;9.13;;
4603;SDS011;2314;48.272;11.562;2022-11-15T04:33:13;135.70;;;9.93;;
4603;SDS011;2314;48.272;11.562;2022-11-15T04:35:41;133.00;;;9.10;;
4603;SDS011;2314;48.272;11.562;2022-11-15T04:38:30;133.67;;;9.00;;
4603;SDS011;2314;48.272;11.562;2022-11-15T04:40:56;135.10;;;9.37;;
4603;SDS011;2314;48.272;11.562;2022-11-15T04:43:24;133.13;;;8.97;;
4603;SDS011;2314;48.272;11.562;2022-11-15T04:45:51;134.30;;;10.10;;
4603;SDS011;2314;48.272;11.562;2022-11-15T04:48:18;136.60;;;9.00;;
4603;SDS011;2314;48.272;11.562;2022-11-15T04:50:47;134.57;;;9.30;;
4603;SDS011;2314;48.272;11.562;2022-11-15T04:53:15;134.77;;;8.63;;
4603;SDS011;2314;48.272;11.562;2022-11-15T04:55:45;135.67;;;9.83;;
4603;SDS011;2314;48.272;11.562;2022-11-15T04:58:12;134.83;;;9.03;;
4603;SDS011;2314;48.272;11.562;2022-11-15T05:00:40;136.03;;;9.13;;
4603;SDS011;2314;48.272;11.562;2022-11-15T05:03:08;132.17;;;8.90;;
4603;SDS011;2314;48.272;11.562;2022-11-15T05:05:53;134.67;;;9.17;;
4603;SDS011;2314;48.272;11.562;2022-11-15T05:08:21;134.97;;;8.97;;
4603;SDS011;2314;48.272;11.562;2022-11-15T05:10:49;131.30;;;8.57;;
4603;SDS011;2314;48.272;11.562;2022-11-15T05:13:17;134.27;;;8.03;;
4603;SDS011;2314;48.272;11.562;2022-11-15T05:15:44;133.40;;;8.77;;
4603;SDS011;2314;48.272;11.562;2022-11-15T05:18:11;131.20;;;8.17;;
4603;SDS011;2314;48.272;11.562;2022-11-15T05:20:39;131.30;;;8.07;;
4603;SDS011;2314;48.272;11.562;2022-11-15T05:23:06;132.63;;;8.77;;
4603;SDS011;2314;48.272;11.562;2022-11-15T05:25:33;137.10;;;9.23;;
4603;SDS011;2314;48.272;11.562;2022-11-15T05:28:03;133.47;;;8.97;;
4603;SDS011;2314;48.272;11.562;2022-11-15T05:30:30;135.47;;;8.53;;
4603;SDS011;2314;48.272;11.562;2022-11-15T05:32:57;132.67;;;8.30;;
4603;SDS011;2314;48.272;11.562;2022-11-15T05:35:25;134.87;;;8.27;;
4603;SDS011;2314;48.272;11.562;2022-11-15T05:37:57;137.63;;;8.10;;
4603;SDS011;2314;48.272;11.562;2022-11-15T05:40:24;134.50;;;8.40;;
4603;SDS011;2314;48.272;11.562;2022-11-15T05:42:52;132.40;;;8.50;;
4603;SDS011;2314;48.272;11.562;2022-11-15T05:45:20;141.87;;;8.50;;
4603;SDS011;2314;48.272;11.562;2022-11-15T05:47:48;136.77;;;8.57;;
4603;SDS011;2314;48.272;11.562;2022-11-15T05:50:16;137.80;;;8.03;;
4603;SDS011;2314;48.272;11.562;2022-11-15T05:52:44;131.60;;;7.33;;
4603;SDS011;2314;48.272;11.562;2022-11-15T05:55:13;131.20;;;7.93;;
4603;SDS011;2314;48.272;11.562;2022-11-15T05:57:41;137.00;;;8.07;;
4603;SDS011;2314;48.272;11.562;2022-11-15T06:00:08;141.30;;;8.80;;
4603;SDS011;2314;48.272;11.562;2022-11-15T06:02:38;143.20;;;8.30;;
4603;SDS011;2314;48.272;11.562;2022-11-15T06:05:05;132.27;;;8.17;;
4603;SDS011;2314;48.272;11.562;2022-11-15T06:07:32;132.87;;;8.27;;
4603;SDS011;2314;48.272;11.562;2022-11-15T06:09:59;130.47;;;7.43;;
4603;SDS011;2314;48.272;11.562;2022-11-15T06:12:26;130.27;;;7.33;;
4603;SDS011;2314;48.272;11.562;2022-11-15T06:14:53;131.07;;;7.07;;
4603;SDS011;2314;48.272;11.562;2022-11-15T06:17:20;133.40;;;7.30;;
4603;SDS011;2314;48.272;11.562;2022-11-15T06:19:49;132.83;;;7.77;;
4603;SDS011;2314;48.272;11.562;2022-11-15T06:22:16;130.40;;;7.20;;
4603;SDS011;2314;48.272;11.562;2022-11-15T06:24:43;130.23;;;7.37;;
4603;SDS011;2314;48.272;11.562;2022-11-15T06:27:10;133.03;;;8.10;;
4603;SDS011;2314;48.272;11.562;2022-11-15T06:29:37;138.47;;;8.97;;
4603;SDS011;2314;48.272;11.562;2022-11-15T06:32:04;133.80;;;8.80;;
4603;SDS011;2314;48.272;11.562;2022-11-15T06:34:32;135.77;;;9.13;;
4603;SDS011;2314;48.272;11.562;2022-11-15T06:37:02;132.13;;;8.40;;
4603;SDS011;2314;48.272;11.562;2022-11-15T06:39:29;134.57;;;8.70;;
4603;SDS011;2314;48.272;11.562;2022-11-15T06:41:56;134.67;;;9.33;;
4603;SDS011;2314;48.272;11.562;2022-11-15T06:44:23;131.90;;;8.47;;
4603;SDS011;2314;48.272;11.562;2022-11-15T06:46:50;134.20;;;9.33;;
4603;SDS011;2314;48.272;11.562;2022-11-15T06:49:17;153.10;;;9.00;;
4603;SDS011;2314;48.272;11.562;2022-11-15T06:51:44;132.33;;;8.80;;
4603;SDS011;2314;48.272;11.562;2022-11-15T06:54:12;134.30;;;8.87;;
4603;SDS011;2314;48.272;11.562;2022-11-15T06:56:39;131.73;;;8.83;;
4603;SDS011;2314;48.272;11.562;2022-11-15T06:59:06;132.73;;;9.07;;
4603;SDS011;2314;48.272;11.562;2022-11-15T07:01:34;131.07;;;8.23;;
4603;SDS011;2314;48.272;11.562;2022-11-15T07:04:01;133.40;;;7.93;;
4603;SDS011;2314;48.272;11.562;2022-11-15T07:06:28;128.87;;;6.80;;
4603;SDS011;2314;48.272;11.562;2022-11-15T07:08:55;141.47;;;8.93;;
4603;SDS011;2314;48.272;11.562;2022-11-15T07:11:23;135.50;;;8.90;;
4603;SDS011;2314;48.272;11.562;2022-11-15T07:13:50;133.67;;;8.90;;
4603;SDS011;2314;48.272;11.562;2022-11-15T07:16:18;136.33;;;8.43;;
4603;SDS011;2314;48.272;11.562;2022-11-15T07:18:45;134.20;;;8.10;;
4603;SDS011;2314;48.272;11.562;2022-11-15T07:21:12;134.47;;;8.27;;
4603;SDS011;2314;48.272;11.562;2022-11-15T07:23:39;136.40;;;7.23;;
4603;SDS011;2314;48.272;11.562;2022-11-15T07:26:06;133.10;;;8.53;;
4603;SDS011;2314;48.272;11.562;2022-11-15T07:28:35;135.57;;;9.17;;
4603;SDS011;2314;48.272;11.562;2022-11-15T07:31:03;131.70;;;7.93;;
4603;SDS011;2314;48.272;11.562;2022-11-15T07:33:32;132.80;;;8.53;;
4603;SDS011;2314;48.272;11.562;2022-11-15T07:35:59;153.70;;;9.90;;
4603;SDS011;2314;48.272;11.562;2022-11-15T07:38:27;138.63;;;9.73;;
4603;SDS011;2314;48.272;11.562;2022-11-15T07:40:56;134.27;;;9.70;;
4603;SDS011;2314;48.272;11.562;2022-11-15T07:43:24;139.70;;;11.40;;
4603;SDS011;2314;48.272;11.562;2022-11-15T07:45:54;136.63;;;11.30;;
4603;SDS011;2314;48.272;11.562;2022-11-15T07:48:21;137.73;;;10.97;;
4603;SDS011;2314;48.272;11.562;2022-11-15T07:50:48;143.87;;;11.83;;
4603;SDS011;2314;48.272;11.562;2022-11-15T07:53:16;139.93;;;11.03;;
4603;SDS011;2314;48.272;11.562;2022-11-15T07:55:43;138.00;;;11.50;;
4603;SDS011;2314;48.272;11.562;2022-11-15T07:58:10;141.07;;;12.23;;
4603;SDS011;2314;48.272;11.562;2022-11-15T08:00:38;136.50;;;10.27;;
4603;SDS011;2314;48.272;11.562;2022-11-15T08:03:07;142.90;;;9.90;;
4603;SDS011;2314;48.272;11.562;2022-11-15T08:05:38;133.57;;;9.03;;
4603;SDS011;2314;48.272;11.562;2022-11-15T08:08:06;133.83;;;9.73;;
4603;SDS011;2314;48.272;11.562;2022-11-15T08:10:35;133.50;;;8.57;;
4603;SDS011;2314;48.272;11.562;2022-11-15T08:13:04;139.30;;;9.23;;
4603;SDS011;2314;48.272;11.562;2022-11-15T08:15:33;138.70;;;9.70;;
4603;SDS011;2314;48.272;11.562;2022-11-15T08:18:01;134.47;;;9.50;;
4603;SDS011;2314;48.272;11.562;2022-11-15T08:20:33;132.07;;;9.07;;
4603;SDS011;2314;48.272;11.562;2022-11-15T08:23:00;132.23;;;9.23;;
4603;SDS011;2314;48.272;11.562;2022-11-15T08:25:30;131.83;;;8.70;;
4603;SDS011;2314;48.272;11.562;2022-11-15T08:28:00;131.67;;;9.53;;
4603;SDS011;2314;48.272;11.562;2022-11-15T08:30:29;130.70;;;9.13;;
4603;SDS011;2314;48.272;11.562;2022-11-15T08:32:58;132.63;;;8.67;;
4603;SDS011;2314;48.272;11.562;2022-11-15T08:35:25;128.23;;;7.90;;
4603;SDS011;2314;48.272;11.562;2022-11-15T08:37:53;134.80;;;9.37;;
4603;SDS011;2314;48.272;11.562;2022-11-15T08:40:20;131.90;;;8.13;;
4603;SDS011;2314;48.272;11.562;2022-11-15T08:42:48;133.47;;;9.33;;
4603;SDS011;2314;48.272;11.562;2022-11-15T08:45:15;130.70;;;8.73;;
4603;SDS011;2314;48.272;11.562;2022-11-15T08:47:42;130.97;;;8.63;;
4603;SDS011;2314;48.272;11.562;2022-11-15T08:50:09;131.30;;;7.77;;
4603;SDS011;2314;48.272;11.562;2022-11-15T08:52:36;130.90;;;8.60;;
4603;SDS011;2314;48.272;11.562;2022-11-15T08:55:05;130.87;;;8.07;;
4603;SDS011;2314;48.272;11.562;2022-11-15T08:57:34;129.57;;;8.17;;
4603;SDS011;2314;48.272;11.562;2022-11-15T09:00:01;129.07;;;8.03;;
4603;SDS011;2314;48.272;11.562;2022-11-15T09:02:29;130.90;;;8.90;;
4603;SDS011;2314;48.272;11.562;2022-11-15T09:04:56;130.30;;;8.13;;
4603;SDS011;2314;48.272;11.562;2022-11-15T09:07:23;130.93;;;8.20;;
4603;SDS011;2314;48.272;11.562;2022-11-15T09:09:50;130.37;;;8.67;;
4603;SDS011;2314;48.272;11.562;2022-11-15T09:12:18;133.97;;;8.60;;
4603;SDS011;2314;48.272;11.562;2022-11-15T09:14:46;130.70;;;8.43;;
4603;SDS011;2314;48.272;11.562;2022-11-15T09:17:13;127.97;;;8.07;;
4603;SDS011;2314;48.272;11.562;2022-11-15T09:19:40;131.90;;;8.90;;
4603;SDS011;2314;48.272;11.562;2022-11-15T09:22:07;136.03;;;8.27;;
4603;SDS011;2314;48.272;11.562;2022-11-15T09:24:34;128.27;;;7.80;;
4603;SDS011;2314;48.272;11.562;2022-11-15T09:27:02;127.60;;;7.60;;
4603;SDS011;2314;48.272;11.562;2022-11-15T09:29:30;129.60;;;7.40;;
4603;SDS011;2314;48.272;11.562;2022-11-15T09:31:58;127.87;;;7.90;;
4603;SDS011;2314;48.272;11.562;2022-11-15T09:34:25;136.27;;;7.77;;
4603;SDS011;2314;48.272;11.562;2022-11-15T09:36:52;132.63;;;8.27;;
4603;SDS011;2314;48.272;11.562;2022-11-15T09:39:19;131.47;;;8.80;;
4603;SDS011;2314;48.272;11.562;2022-11-15T09:45:07;127.37;;;8.00;;
4603;SDS011;2314;48.272;11.562;2022-11-15T09:48:02;128.23;;;8.07;;
4603;SDS011;2314;48.272;11.562;2022-11-15T09:50:55;135.67;;;9.37;;
4603;SDS011;2314;48.272;11.562;2022-11-15T09:53:26;128.70;;;7.50;;
4603;SDS011;2314;48.272;11.562;2022-11-15T09:55:59;131.50;;;8.27;;
4603;SDS011;2314;48.272;11.562;2022-11-15T09:58:30;128.47;;;6.63;;
4603;SDS011;2314;48.272;11.562;2022-11-15T10:01:06;135.03;;;6.83;;
4603;SDS011;2314;48.272;11.562;2022-11-15T10:03:41;125.20;;;6.27;;
4603;SDS011;2314;48.272;11.562;2022-11-15T10:06:14;123.73;;;5.67;;
4603;SDS011;2314;48.272;11.562;2022-11-15T10:08:54;122.83;;;5.10;;
4603;SDS011;2314;48.272;11.562;2022-11-15T10:11:26;121.87;;;4.93;;
4603;SDS011;2314;48.272;11.562;2022-11-15T10:13:59;122.30;;;5.30;;
4603;SDS011;2314;48.272;11.562;2022-11-15T10:16:40;126.97;;;5.00;;
4603;SDS011;2314;48.272;11.562;2022-11-15T10:19:39;122.17;;;4.43;;
4603;SDS011;2314;48.272;11.562;2022-11-15T10:22:25;120.67;;;4.57;;
4603;SDS011;2314;48.272;11.562;2022-11-15T10:25:06;120.07;;;4.33;;
4603;SDS011;2314;48.272;11.562;2022-11-15T10:27:43;119.47;;;4.27;;
4603;SDS011;2314;48.272;11.562;2022-11-15T10:30:20;121.07;;;4.27;;
4603;SDS011;2314;48.272;11.562;2022-11-15T10:32:49;119.07;;;4.23;;
4603;SDS011;2314;48.272;11.562;2022-11-15T10:35:17;118.97;;;4.10;;
4603;SDS011;2314;48.272;11.562;2022-11-15T10:37:49;120.07;;;3.90;;
4603;SDS011;2314;48.272;11.562;2022-11-15T10:40:18;118.87;;;5.03;;
4603;SDS011;2314;48.272;11.562;2022-11-15T10:42:48;119.40;;;4.33;;
4603;SDS011;2314;48.272;11.562;2022-11-15T10:45:31;120.13;;;4.80;;
4603;SDS011;2314;48.272;11.562;2022-11-15T10:50:54;119.73;;;4.80;;
4603;SDS011;2314;48.272;11.562;2022-11-15T10:53:23;117.10;;;3.70;;
4603;SDS011;2314;48.272;11.562;2022-11-15T10:55:57;117.33;;;4.20;;
4603;SDS011;2314;48.272;11.562;2022-11-15T10:58:34;118.60;;;4.30;;
4603;SDS011;2314;48.272;11.562;2022-11-15T11:01:16;117.23;;;3.83;;
4603;SDS011;2314;48.272;11.562;2022-11-15T11:03:57;117.47;;;3.97;;
4603;SDS011;2314;48.272;11.562;2022-11-15T11:06:27;116.57;;;3.90;;
4603;SDS011;2314;48.272;11.562;2022-11-15T11:08:56;115.67;;;3.20;;
4603;SDS011;2314;48.272;11.562;2022-11-15T11:11:28;122.67;;;4.10;;
4603;SDS011;2314;48.272;11.562;2022-11-15T11:14:12;116.77;;;3.87;;
4603;SDS011;2314;48.272;11.562;2022-11-15T11:16:44;117.20;;;3.90;;
4603;SDS011;2314;48.272;11.562;2022-11-15T11:19:18;119.17;;;4.57;;
4603;SDS011;2314;48.272;11.562;2022-11-15T11:22:05;116.73;;;4.00;;
4603;SDS011;2314;48.272;11.562;2022-11-15T11:24:44;119.60;;;3.93;;
4603;SDS011;2314;48.272;11.562;2022-11-15T11:27:22;116.33;;;3.90;;
4603;SDS011;2314;48.272;11.562;2022-11-15T11:30:10;117.00;;;3.60;;
4603;SDS011;2314;48.272;11.562;2022-11-15T11:32:48;116.70;;;4.20;;
4603;SDS011;2314;48.272;11.562;2022-11-15T11:35:24;118.87;;;3.70;;
4603;SDS011;2314;48.272;11.562;2022-11-15T11:38:03;116.80;;;4.40;;
4603;SDS011;2314;48.272;11.562;2022-11-15T11:40:51;118.30;;;4.37;;
4603;SDS011;2314;48.272;11.562;2022-11-15T11:43:32;117.07;;;3.80;;
4603;SDS011;2314;48.272;11.562;2022-11-15T11:46:11;121.47;;;4.60;;
4603;SDS011;2314;48.272;11.562;2022-11-15T11:48:55;116.80;;;4.07;;
4603;SDS011;2314;48.272;11.562;2022-11-15T11:51:32;119.17;;;4.53;;
4603;SDS011;2314;48.272;11.562;2022-11-15T11:54:08;117.37;;;4.27;;
4603;SDS011;2314;48.272;11.562;2022-11-15T11:56:40;116.77;;;4.60;;
4603;SDS011;2314;48.272;11.562;2022-11-15T11:59:12;115.67;;;4.10;;
4603;SDS011;2314;48.272;11.562;2022-11-15T12:01:47;120.00;;;5.00;;
4603;SDS011;2314;48.272;11.562;2022-11-15T12:04:16;117.70;;;4.73;;
4603;SDS011;2314;48.272;11.562;2022-11-15T12:06:49;117.40;;;4.77;;
4603;SDS011;2314;48.272;11.562;2022-11-15T12:09:23;121.77;;;4.90;;
4603;SDS011;2314;48.272;11.562;2022-11-15T12:11:59;118.73;;;5.30;;
4603;SDS011;2314;48.272;11.562;2022-11-15T12:14:35;120.07;;;5.17;;
4603;SDS011;2314;48.272;11.562;2022-11-15T12:17:13;122.97;;;5.77;;
4603;SDS011;2314;48.272;11.562;2022-11-15T12:19:50;121.97;;;5.63;;
4603;SDS011;2314;48.272;11.562;2022-11-15T12:22:20;123.97;;;6.20;;
4603;SDS011;2314;48.272;11.562;2022-11-15T12:24:51;120.73;;;5.93;;
4603;SDS011;2314;48.272;11.562;2022-11-15T12:27:27;120.47;;;5.77;;
4603;SDS011;2314;48.272;11.562;2022-11-15T12:30:02;122.90;;;6.13;;
4603;SDS011;2314;48.272;11.562;2022-11-15T12:32:35;125.90;;;5.40;;
4603;SDS011;2314;48.272;11.562;2022-11-15T12:35:20;119.40;;;5.77;;
4603;SDS011;2314;48.272;11.562;2022-11-15T12:37:51;120.57;;;5.70;;
4603;SDS011;2314;48.272;11.562;2022-11-15T12:40:27;120.77;;;5.57;;
4603;SDS011;2314;48.272;11.562;2022-11-15T12:46:10;118.37;;;5.30;;
4603;SDS011;2314;48.272;11.562;2022-11-15T12:48:49;119.67;;;5.60;;
4603;SDS011;2314;48.272;11.562;2022-11-15T12:51:20;119.57;;;5.90;;
4603;SDS011;2314;48.272;11.562;2022-11-15T12:57:27;119.57;;;4.97;;
4603;SDS011;2314;48.272;11.562;2022-11-15T13:03:22;119.57;;;5.33;;
4603;SDS011;2314;48.272;11.562;2022-11-15T13:05:58;119.80;;;5.70;;
4603;SDS011;2314;48.272;11.562;2022-11-15T13:08:58;120.57;;;5.57;;
4603;SDS011;2314;48.272;11.562;2022-11-15T13:11:44;118.77;;;5.23;;
4603;SDS011;2314;48.272;11.562;2022-11-15T13:20:14;120.17;;;5.33;;
4603;SDS011;2314;48.272;11.562;2022-11-15T13:23:01;118.97;;;5.47;;
4603;SDS011;2314;48.272;11.562;2022-11-15T13:25:46;120.47;;;5.57;;
4603;SDS011;2314;48.272;11.562;2022-11-15T13:28:36;119.70;;;5.20;;
4603;SDS011;2314;48.272;11.562;2022-11-15T13:31:18;118.67;;;5.10;;
4603;SDS011;2314;48.272;11.562;2022-11-15T13:34:02;120.37;;;5.30;;
4603;SDS011;2314;48.272;11.562;2022-11-15T13:36:43;119.90;;;6.03;;
4603;SDS011;2314;48.272;11.562;2022-11-15T13:39:12;119.37;;;5.83;;
4603;SDS011;2314;48.272;11.562;2022-11-15T13:41:54;118.13;;;5.50;;
4603;SDS011;2314;48.272;11.562;2022-11-15T13:44:21;122.07;;;5.93;;
4603;SDS011;2314;48.272;11.562;2022-11-15T13:47:00;120.07;;;5.90;;
4603;SDS011;2314;48.272;11.562;2022-11-15T13:49:29;128.10;;;5.83;;
4603;SDS011;2314;48.272;11.562;2022-11-15T13:51:57;118.40;;;4.80;;
4603;SDS011;2314;48.272;11.562;2022-11-15T13:54:27;120.90;;;6.10;;
4603;SDS011;2314;48.272;11.562;2022-11-15T13:57:00;118.40;;;5.47;;
4603;SDS011;2314;48.272;11.562;2022-11-15T13:59:31;120.80;;;6.27;;
4603;SDS011;2314;48.272;11.562;2022-11-15T14:02:02;119.50;;;5.73;;
4603;SDS011;2314;48.272;11.562;2022-11-15T14:04:45;122.67;;;5.67;;
4603;SDS011;2314;48.272;11.562;2022-11-15T14:07:16;122.37;;;5.80;;
4603;SDS011;2314;48.272;11.562;2022-11-15T14:09:46;120.20;;;5.90;;
4603;SDS011;2314;48.272;11.562;2022-11-15T14:15:17;120.70;;;5.80;;
4603;SDS011;2314;48.272;11.562;2022-11-15T14:17:52;119.73;;;5.67;;
4603;SDS011;2314;48.272;11.562;2022-11-15T14:20:20;121.60;;;5.70;;
4603;SDS011;2314;48.272;11.562;2022-11-15T14:22:56;122.00;;;6.03;;
4603;SDS011;2314;48.272;11.562;2022-11-15T14:25:24;122.10;;;5.70;;
4603;SDS011;2314;48.272;11.562;2022-11-15T14:28:10;123.17;;;6.17;;
4603;SDS011;2314;48.272;11.562;2022-11-15T14:30:55;119.00;;;5.57;;
4603;SDS011;2314;48.272;11.562;2022-11-15T14:33:25;121.97;;;6.67;;
4603;SDS011;2314;48.272;11.562;2022-11-15T14:35:56;122.20;;;6.50;;
4603;SDS011;2314;48.272;11.562;2022-11-15T14:38:28;123.07;;;6.80;;
4603;SDS011;2314;48.272;11.562;2022-11-15T14:40:55;126.43;;;6.13;;
4603;SDS011;2314;48.272;11.562;2022-11-15T14:43:24;123.17;;;5.90;;
4603;SDS011;2314;48.272;11.562;2022-11-15T14:45:51;122.70;;;6.87;;
4603;SDS011;2314;48.272;11.562;2022-11-15T14:48:18;121.47;;;6.37;;
4603;SDS011;2314;48.272;11.562;2022-11-15T14:50:47;121.53;;;6.33;;
4603;SDS011;2314;48.272;11.562;2022-11-15T14:53:15;122.70;;;6.87;;
4603;SDS011;2314;48.272;11.562;2022-11-15T14:55:43;123.07;;;6.80;;
4603;SDS011;2314;48.272;11.562;2022-11-15T14:58:11;124.27;;;7.00;;
4603;SDS011;2314;48.272;11.562;2022-11-15T15:00:39;121.67;;;6.53;;
4603;SDS011;2314;48.272;11.562;2022-11-15T15:03:08;123.53;;;6.83;;
4603;SDS011;2314;48.272;11.562;2022-11-15T15:05:36;124.37;;;7.60;;
4603;SDS011;2314;48.272;11.562;2022-11-15T15:08:06;125.07;;;7.50;;
4603;SDS011;2314;48.272;11.562;2022-11-15T15:10:34;126.00;;;8.43;;
4603;SDS011;2314;48.272;11.562;2022-11-15T15:13:03;126.90;;;7.93;;
4603;SDS011;2314;48.272;11.562;2022-11-15T15:15:32;124.70;;;6.90;;
4603;SDS011;2314;48.272;11.562;2022-11-15T15:18:02;127.87;;;8.17;;
4603;SDS011;2314;48.272;11.562;2022-11-15T15:20:31;124.67;;;7.37;;
4603;SDS011;2314;48.272;11.562;2022-11-15T15:22:58;127.50;;;7.83;;
4603;SDS011;2314;48.272;11.562;2022-11-15T15:25:26;127.27;;;8.10;;
4603;SDS011;2314;48.272;11.562;2022-11-15T15:27:55;129.07;;;8.77;;